sensor_id;sensor_type;location;lat;lon;timestamp;temperature;humidity
2497;DHT22;1259;48.306;14.374;2023-02-08T00:01:59;-5.50;99.90
2497;DHT22;1259;48.306;14.374;2023-02-08T00:04:27;-5.60;99.90
2497;DHT22;1259;48.306;14.374;2023-02-08T00:06:54;-5.60;99.90
2497;DHT22;1259;48.306;14.374;2023-02-08T00:09:21;-5.60;99.90
2497;DHT22;1259;48.306;14.374;2023-02-08T00:11:47;-5.70;99.90
2497;DHT22;1259;48.306;14.374;2023-02-08T00:14:14;-5.70;99.90
2497;DHT22;1259;48.306;14.374;2023-02-08T00:16:42;-5.70;99.90
2497;DHT22;1259;48.306;14.374;2023-02-08T00:19:09;-5.70;99.90
2497;DHT22;1259;48.306;14.374;2023-02-08T00:21:36;-5.70;99.90
2497;DHT22;1259;48.306;14.374;2023-02-08T00:24:03;-5.70;99.90
2497;DHT22;1259;48.306;14.374;2023-02-08T00:26:29;-5.70;99.90
2497;DHT22;1259;48.306;14.374;2023-02-08T00:28:56;-5.80;99.90
2497;DHT22;1259;48.306;14.374;2023-02-08T00:31:23;-5.80;99.90
2497;DHT22;1259;48.306;14.374;2023-02-08T00:33:51;-5.80;99.90
2497;DHT22;1259;48.306;14.374;2023-02-08T00:36:17;-5.90;99.90
2497;DHT22;1259;48.306;14.374;2023-02-08T00:38:44;-5.90;99.90
2497;DHT22;1259;48.306;14.374;2023-02-08T00:41:11;-5.90;99.90
2497;DHT22;1259;48.306;14.374;2023-02-08T00:43:37;-5.90;99.90
2497;DHT22;1259;48.306;14.374;2023-02-08T00:46:04;-6.00;99.90
2497;DHT22;1259;48.306;14.374;2023-02-08T00:48:32;-6.00;99.90
2497;DHT22;1259;48.306;14.374;2023-02-08T00:51:01;-6.10;99.90
2497;DHT22;1259;48.306;14.374;2023-02-08T00:53:28;-6.20;99.90
2497;DHT22;1259;48.306;14.374;2023-02-08T00:55:55;-6.20;99.90
2497;DHT22;1259;48.306;14.374;2023-02-08T00:58:21;-6.20;99.90
2497;DHT22;1259;48.306;14.374;2023-02-08T01:00:49;-6.20;99.90
2497;DHT22;1259;48.306;14.374;2023-02-08T01:03:16;-6.20;99.90
2497;DHT22;1259;48.306;14.374;2023-02-08T01:05:43;-6.20;99.90
2497;DHT22;1259;48.306;14.374;2023-02-08T01:08:11;-6.20;99.90
2497;DHT22;1259;48.306;14.374;2023-02-08T01:10:37;-6.30;99.90
2497;DHT22;1259;48.306;14.374;2023-02-08T01:13:04;-6.30;99.90
2497;DHT22;1259;48.306;14.374;2023-02-08T01:15:31;-6.40;99.90
2497;DHT22;1259;48.306;14.374;2023-02-08T01:17:57;-6.40;99.90
2497;DHT22;1259;48.306;14.374;2023-02-08T01:20:24;-6.50;99.90
2497;DHT22;1259;48.306;14.374;2023-02-08T01:22:51;-6.60;99.90
2497;DHT22;1259;48.306;14.374;2023-02-08T01:25:19;-6.60;99.90
2497;DHT22;1259;48.306;14.374;2023-02-08T01:27:47;-6.70;99.90
2497;DHT22;1259;48.306;14.374;2023-02-08T01:30:13;-6.70;99.90
2497;DHT22;1259;48.306;14.374;2023-02-08T01:32:41;-6.70;99.90
2497;DHT22;1259;48.306;14.374;2023-02-08T01:35:08;-6.80;99.90
2497;DHT22;1259;48.306;14.374;2023-02-08T01:37:35;-6.80;99.90
2497;DHT22;1259;48.306;14.374;2023-02-08T01:40:01;-6.90;99.90
2497;DHT22;1259;48.306;14.374;2023-02-08T01:42:29;-6.90;99.90
2497;DHT22;1259;48.306;14.374;2023-02-08T01:47:47;-7.00;99.90
2497;DHT22;1259;48.306;14.374;2023-02-08T01:50:16;-7.00;99.90
2497;DHT22;1259;48.306;14.374;2023-02-08T01:52:43;-6.90;99.90
2497;DHT22;1259;48.306;14.374;2023-02-08T01:55:11;-6.80;99.90
2497;DHT22;1259;48.306;14.374;2023-02-08T01:57:40;-6.80;99.90
2497;DHT22;1259;48.306;14.374;2023-02-08T02:00:11;-6.90;99.90
2497;DHT22;1259;48.306;14.374;2023-02-08T02:02:38;-6.90;99.90
2497;DHT22;1259;48.306;14.374;2023-02-08T02:05:05;-6.90;99.90
2497;DHT22;1259;48.306;14.374;2023-02-08T02:07:31;-6.80;99.90
2497;DHT22;1259;48.306;14.374;2023-02-08T02:10:00;-6.70;99.90
2497;DHT22;1259;48.306;14.374;2023-02-08T02:12:28;-6.80;99.90
2497;DHT22;1259;48.306;14.374;2023-02-08T02:14:57;-6.80;99.90
2497;DHT22;1259;48.306;14.374;2023-02-08T02:17:25;-6.80;99.90
2497;DHT22;1259;48.306;14.374;2023-02-08T02:19:53;-6.80;99.90
2497;DHT22;1259;48.306;14.374;2023-02-08T02:22:35;-6.90;99.90
2497;DHT22;1259;48.306;14.374;2023-02-08T02:25:15;-6.90;99.90
2497;DHT22;1259;48.306;14.374;2023-02-08T02:27:51;-6.90;99.90
2497;DHT22;1259;48.306;14.374;2023-02-08T02:30:32;-6.90;99.90
2497;DHT22;1259;48.306;14.374;2023-02-08T02:33:06;-6.90;99.90
2497;DHT22;1259;48.306;14.374;2023-02-08T02:35:35;-7.00;99.90
2497;DHT22;1259;48.306;14.374;2023-02-08T02:38:06;-6.90;99.90
2497;DHT22;1259;48.306;14.374;2023-02-08T02:40:35;-7.00;99.90
2497;DHT22;1259;48.306;14.374;2023-02-08T02:43:08;-7.00;99.90
2497;DHT22;1259;48.306;14.374;2023-02-08T02:45:55;-6.90;99.90
2497;DHT22;1259;48.306;14.374;2023-02-08T02:48:27;-7.00;99.90
2497;DHT22;1259;48.306;14.374;2023-02-08T02:50:57;-7.00;99.90
2497;DHT22;1259;48.306;14.374;2023-02-08T02:53:27;-7.00;99.90
2497;DHT22;1259;48.306;14.374;2023-02-08T02:55:57;-6.90;99.90
2497;DHT22;1259;48.306;14.374;2023-02-08T02:58:26;-7.00;99.90
2497;DHT22;1259;48.306;14.374;2023-02-08T03:00:53;-7.00;99.90
2497;DHT22;1259;48.306;14.374;2023-02-08T03:03:21;-6.90;99.90
2497;DHT22;1259;48.306;14.374;2023-02-08T03:05:51;-6.90;99.90
2497;DHT22;1259;48.306;14.374;2023-02-08T03:08:25;-6.90;99.90
2497;DHT22;1259;48.306;14.374;2023-02-08T03:11:07;-6.90;99.90
2497;DHT22;1259;48.306;14.374;2023-02-08T03:13:38;-6.90;99.90
2497;DHT22;1259;48.306;14.374;2023-02-08T03:16:14;-6.80;99.90
2497;DHT22;1259;48.306;14.374;2023-02-08T03:18:44;-6.80;99.90
2497;DHT22;1259;48.306;14.374;2023-02-08T03:21:17;-6.80;99.90
2497;DHT22;1259;48.306;14.374;2023-02-08T03:23:45;-6.80;99.90
2497;DHT22;1259;48.306;14.374;2023-02-08T03:26:15;-6.70;99.90
2497;DHT22;1259;48.306;14.374;2023-02-08T03:28:46;-6.80;99.90
2497;DHT22;1259;48.306;14.374;2023-02-08T03:31:16;-6.70;99.90
2497;DHT22;1259;48.306;14.374;2023-02-08T03:33:45;-6.70;99.90
2497;DHT22;1259;48.306;14.374;2023-02-08T03:36:13;-6.70;99.90
2497;DHT22;1259;48.306;14.374;2023-02-08T03:38:44;-6.80;99.90
2497;DHT22;1259;48.306;14.374;2023-02-08T03:41:13;-6.80;99.90
2497;DHT22;1259;48.306;14.374;2023-02-08T03:43:41;-6.80;99.90
2497;DHT22;1259;48.306;14.374;2023-02-08T03:46:10;-6.80;99.90
2497;DHT22;1259;48.306;14.374;2023-02-08T03:48:38;-6.70;99.90
2497;DHT22;1259;48.306;14.374;2023-02-08T03:51:06;-6.80;99.90
2497;DHT22;1259;48.306;14.374;2023-02-08T03:53:33;-6.70;99.90
2497;DHT22;1259;48.306;14.374;2023-02-08T03:56:07;-6.60;99.90
2497;DHT22;1259;48.306;14.374;2023-02-08T03:58:37;-6.70;99.90
2497;DHT22;1259;48.306;14.374;2023-02-08T04:01:06;-6.80;99.90
2497;DHT22;1259;48.306;14.374;2023-02-08T04:03:34;-6.80;99.90
2497;DHT22;1259;48.306;14.374;2023-02-08T04:06:01;-6.80;99.90
2497;DHT22;1259;48.306;14.374;2023-02-08T04:08:28;-6.80;99.90
2497;DHT22;1259;48.306;14.374;2023-02-08T04:10:55;-6.70;99.90
2497;DHT22;1259;48.306;14.374;2023-02-08T04:13:23;-6.80;99.90
2497;DHT22;1259;48.306;14.374;2023-02-08T04:15:49;-6.80;99.90
2497;DHT22;1259;48.306;14.374;2023-02-08T04:18:16;-6.90;99.90
2497;DHT22;1259;48.306;14.374;2023-02-08T04:20:43;-6.80;99.90
2497;DHT22;1259;48.306;14.374;2023-02-08T04:23:10;-6.80;99.90
2497;DHT22;1259;48.306;14.374;2023-02-08T04:25:36;-6.70;99.90
2497;DHT22;1259;48.306;14.374;2023-02-08T04:28:03;-6.50;99.90
2497;DHT22;1259;48.306;14.374;2023-02-08T04:30:31;-6.50;99.90
2497;DHT22;1259;48.306;14.374;2023-02-08T04:32:58;-6.40;99.90
2497;DHT22;1259;48.306;14.374;2023-02-08T04:35:25;-6.40;99.90
2497;DHT22;1259;48.306;14.374;2023-02-08T04:37:52;-6.40;99.90
2497;DHT22;1259;48.306;14.374;2023-02-08T04:40:18;-6.50;99.90
2497;DHT22;1259;48.306;14.374;2023-02-08T04:42:45;-6.50;99.90
2497;DHT22;1259;48.306;14.374;2023-02-08T04:45:12;-6.50;99.90
2497;DHT22;1259;48.306;14.374;2023-02-08T04:47:40;-6.40;99.90
2497;DHT22;1259;48.306;14.374;2023-02-08T04:50:06;-6.40;99.90
2497;DHT22;1259;48.306;14.374;2023-02-08T04:52:33;-6.50;99.90
2497;DHT22;1259;48.306;14.374;2023-02-08T04:55:00;-6.50;99.90
2497;DHT22;1259;48.306;14.374;2023-02-08T04:57:26;-6.50;99.90
2497;DHT22;1259;48.306;14.374;2023-02-08T04:59:53;-6.50;99.90
2497;DHT22;1259;48.306;14.374;2023-02-08T05:02:20;-6.40;99.90
2497;DHT22;1259;48.306;14.374;2023-02-08T05:04:48;-6.50;99.90
2497;DHT22;1259;48.306;14.374;2023-02-08T05:07:14;-6.50;99.90
2497;DHT22;1259;48.306;14.374;2023-02-08T05:09:41;-6.40;99.90
2497;DHT22;1259;48.306;14.374;2023-02-08T05:12:08;-6.40;99.90
2497;DHT22;1259;48.306;14.374;2023-02-08T05:14:35;-6.30;99.90
2497;DHT22;1259;48.306;14.374;2023-02-08T05:17:01;-6.40;99.90
2497;DHT22;1259;48.306;14.374;2023-02-08T05:19:28;-6.30;99.90
2497;DHT22;1259;48.306;14.374;2023-02-08T05:21:56;-6.30;99.90
2497;DHT22;1259;48.306;14.374;2023-02-08T05:24:23;-6.20;99.90
2497;DHT22;1259;48.306;14.374;2023-02-08T05:26:49;-6.10;99.90
2497;DHT22;1259;48.306;14.374;2023-02-08T05:29:16;-6.10;99.90
2497;DHT22;1259;48.306;14.374;2023-02-08T05:31:43;-6.10;99.90
2497;DHT22;1259;48.306;14.374;2023-02-08T05:34:09;-6.10;99.90
2497;DHT22;1259;48.306;14.374;2023-02-08T05:36:36;-6.10;99.90
2497;DHT22;1259;48.306;14.374;2023-02-08T05:39:04;-6.00;99.90
2497;DHT22;1259;48.306;14.374;2023-02-08T05:41:31;-6.00;99.90
2497;DHT22;1259;48.306;14.374;2023-02-08T05:43:58;-5.90;99.90
2497;DHT22;1259;48.306;14.374;2023-02-08T05:46:24;-5.90;99.90
2497;DHT22;1259;48.306;14.374;2023-02-08T05:48:51;-5.90;99.90
2497;DHT22;1259;48.306;14.374;2023-02-08T05:51:18;-5.90;99.90
2497;DHT22;1259;48.306;14.374;2023-02-08T05:53:45;-5.90;99.90
2497;DHT22;1259;48.306;14.374;2023-02-08T05:56:13;-5.90;99.90
2497;DHT22;1259;48.306;14.374;2023-02-08T05:58:39;-5.80;99.90
2497;DHT22;1259;48.306;14.374;2023-02-08T06:01:07;-5.80;99.90
2497;DHT22;1259;48.306;14.374;2023-02-08T06:03:34;-5.80;99.90
2497;DHT22;1259;48.306;14.374;2023-02-08T06:06:01;-5.80;99.90
2497;DHT22;1259;48.306;14.374;2023-02-08T06:08:28;-5.80;99.90
2497;DHT22;1259;48.306;14.374;2023-02-08T06:10:54;-5.80;99.90
2497;DHT22;1259;48.306;14.374;2023-02-08T06:13:22;-5.80;99.90
2497;DHT22;1259;48.306;14.374;2023-02-08T06:15:49;-5.80;99.90
2497;DHT22;1259;48.306;14.374;2023-02-08T06:18:16;-5.80;99.90
2497;DHT22;1259;48.306;14.374;2023-02-08T06:20:42;-5.80;99.90
2497;DHT22;1259;48.306;14.374;2023-02-08T06:23:09;-5.80;99.90
2497;DHT22;1259;48.306;14.374;2023-02-08T06:25:36;-5.80;99.90
2497;DHT22;1259;48.306;14.374;2023-02-08T06:28:03;-5.80;99.90
2497;DHT22;1259;48.306;14.374;2023-02-08T06:30:32;-5.80;99.90
2497;DHT22;1259;48.306;14.374;2023-02-08T06:32:59;-5.70;99.90
2497;DHT22;1259;48.306;14.374;2023-02-08T06:35:25;-5.70;99.90
2497;DHT22;1259;48.306;14.374;2023-02-08T06:37:52;-5.70;99.90
2497;DHT22;1259;48.306;14.374;2023-02-08T06:40:19;-5.70;99.90
2497;DHT22;1259;48.306;14.374;2023-02-08T06:42:46;-5.70;99.90
2497;DHT22;1259;48.306;14.374;2023-02-08T06:45:12;-5.60;99.90
2497;DHT22;1259;48.306;14.374;2023-02-08T06:47:40;-5.60;99.90
2497;DHT22;1259;48.306;14.374;2023-02-08T06:50:07;-5.50;99.90
2497;DHT22;1259;48.306;14.374;2023-02-08T06:52:34;-5.50;99.90
2497;DHT22;1259;48.306;14.374;2023-02-08T06:55:01;-5.50;99.90
2497;DHT22;1259;48.306;14.374;2023-02-08T06:57:27;-5.50;99.90
2497;DHT22;1259;48.306;14.374;2023-02-08T06:59:54;-5.50;99.90
2497;DHT22;1259;48.306;14.374;2023-02-08T07:02:21;-5.40;99.90
2497;DHT22;1259;48.306;14.374;2023-02-08T07:04:49;-5.40;99.90
2497;DHT22;1259;48.306;14.374;2023-02-08T07:07:16;-5.40;99.90
2497;DHT22;1259;48.306;14.374;2023-02-08T07:09:43;-5.40;99.90
2497;DHT22;1259;48.306;14.374;2023-02-08T07:12:10;-5.40;99.90
2497;DHT22;1259;48.306;14.374;2023-02-08T07:14:38;-5.30;99.90
2497;DHT22;1259;48.306;14.374;2023-02-08T07:17:04;-5.30;99.90
2497;DHT22;1259;48.306;14.374;2023-02-08T07:19:31;-5.30;99.90
2497;DHT22;1259;48.306;14.374;2023-02-08T07:21:59;-5.30;99.90
2497;DHT22;1259;48.306;14.374;2023-02-08T07:24:29;-5.20;99.90
2497;DHT22;1259;48.306;14.374;2023-02-08T07:26:55;-5.20;99.90
2497;DHT22;1259;48.306;14.374;2023-02-08T07:29:22;-5.30;99.90
2497;DHT22;1259;48.306;14.374;2023-02-08T07:31:49;-5.40;99.90
2497;DHT22;1259;48.306;14.374;2023-02-08T07:34:15;-5.40;99.90
2497;DHT22;1259;48.306;14.374;2023-02-08T07:36:46;-5.40;99.90
2497;DHT22;1259;48.306;14.374;2023-02-08T07:39:14;-5.20;99.90
2497;DHT22;1259;48.306;14.374;2023-02-08T07:41:40;-5.10;99.90
2497;DHT22;1259;48.306;14.374;2023-02-08T07:44:07;-5.10;99.90
2497;DHT22;1259;48.306;14.374;2023-02-08T07:46:34;-5.00;99.90
2497;DHT22;1259;48.306;14.374;2023-02-08T07:49:00;-4.80;99.90
2497;DHT22;1259;48.306;14.374;2023-02-08T07:51:27;-4.90;99.90
2497;DHT22;1259;48.306;14.374;2023-02-08T07:53:54;-4.90;99.90
2497;DHT22;1259;48.306;14.374;2023-02-08T07:56:22;-4.80;99.90
2497;DHT22;1259;48.306;14.374;2023-02-08T07:58:49;-4.60;99.90
2497;DHT22;1259;48.306;14.374;2023-02-08T08:01:15;-4.60;99.90
2497;DHT22;1259;48.306;14.374;2023-02-08T08:03:42;-4.60;99.90
2497;DHT22;1259;48.306;14.374;2023-02-08T08:06:09;-4.70;99.90
2497;DHT22;1259;48.306;14.374;2023-02-08T08:08:35;-4.60;99.90
2497;DHT22;1259;48.306;14.374;2023-02-08T08:11:03;-4.40;99.90
2497;DHT22;1259;48.306;14.374;2023-02-08T08:13:31;-4.30;99.90
2497;DHT22;1259;48.306;14.374;2023-02-08T08:15:58;-4.30;99.90
2497;DHT22;1259;48.306;14.374;2023-02-08T08:18:24;-4.40;99.90
2497;DHT22;1259;48.306;14.374;2023-02-08T08:20:51;-4.20;99.90
2497;DHT22;1259;48.306;14.374;2023-02-08T08:23:17;-4.00;99.90
2497;DHT22;1259;48.306;14.374;2023-02-08T08:25:44;-4.00;99.90
2497;DHT22;1259;48.306;14.374;2023-02-08T08:28:11;-4.10;99.90
2497;DHT22;1259;48.306;14.374;2023-02-08T08:30:42;-3.90;99.90
2497;DHT22;1259;48.306;14.374;2023-02-08T08:33:08;-3.70;99.90
2497;DHT22;1259;48.306;14.374;2023-02-08T08:35:35;-3.60;99.90
2497;DHT22;1259;48.306;14.374;2023-02-08T08:38:02;-3.70;99.90
2497;DHT22;1259;48.306;14.374;2023-02-08T08:40:29;-3.60;99.90
2497;DHT22;1259;48.306;14.374;2023-02-08T08:42:55;-3.60;99.90
2497;DHT22;1259;48.306;14.374;2023-02-08T08:45:22;-3.60;99.90
2497;DHT22;1259;48.306;14.374;2023-02-08T08:47:50;-3.40;99.90
2497;DHT22;1259;48.306;14.374;2023-02-08T08:50:17;-3.40;99.90
2497;DHT22;1259;48.306;14.374;2023-02-08T08:52:44;-3.40;99.90
2497;DHT22;1259;48.306;14.374;2023-02-08T08:55:10;-3.20;99.90
2497;DHT22;1259;48.306;14.374;2023-02-08T08:57:37;-3.10;99.90
2497;DHT22;1259;48.306;14.374;2023-02-08T09:00:04;-2.90;99.90
2497;DHT22;1259;48.306;14.374;2023-02-08T09:02:31;-2.90;99.90
2497;DHT22;1259;48.306;14.374;2023-02-08T09:04:59;-2.70;99.90
2497;DHT22;1259;48.306;14.374;2023-02-08T09:07:27;-2.50;99.90
2497;DHT22;1259;48.306;14.374;2023-02-08T09:09:53;-2.40;99.90
2497;DHT22;1259;48.306;14.374;2023-02-08T09:12:20;-2.30;99.90
2497;DHT22;1259;48.306;14.374;2023-02-08T09:14:48;-2.40;99.90
2497;DHT22;1259;48.306;14.374;2023-02-08T09:17:14;-2.30;99.90
2497;DHT22;1259;48.306;14.374;2023-02-08T09:19:41;-2.10;99.90
2497;DHT22;1259;48.306;14.374;2023-02-08T09:22:09;-1.90;99.90
2497;DHT22;1259;48.306;14.374;2023-02-08T09:24:36;-1.80;99.90
2497;DHT22;1259;48.306;14.374;2023-02-08T09:27:03;-1.80;99.90
2497;DHT22;1259;48.306;14.374;2023-02-08T09:29:30;-1.80;99.90
2497;DHT22;1259;48.306;14.374;2023-02-08T09:31:58;-1.60;99.90
2497;DHT22;1259;48.306;14.374;2023-02-08T09:34:24;-1.60;99.90
2497;DHT22;1259;48.306;14.374;2023-02-08T09:36:51;-1.70;99.90
2497;DHT22;1259;48.306;14.374;2023-02-08T09:39:20;-1.60;99.90
2497;DHT22;1259;48.306;14.374;2023-02-08T09:41:54;-1.60;99.90
2497;DHT22;1259;48.306;14.374;2023-02-08T09:44:27;-1.90;99.90
2497;DHT22;1259;48.306;14.374;2023-02-08T09:46:57;-1.70;99.90
2497;DHT22;1259;48.306;14.374;2023-02-08T09:49:26;-1.70;99.90
2497;DHT22;1259;48.306;14.374;2023-02-08T09:51:55;-1.60;99.90
2497;DHT22;1259;48.306;14.374;2023-02-08T09:54:24;-1.50;99.90
2497;DHT22;1259;48.306;14.374;2023-02-08T09:56:52;-1.60;99.90
2497;DHT22;1259;48.306;14.374;2023-02-08T09:59:20;-1.60;99.90
2497;DHT22;1259;48.306;14.374;2023-02-08T10:01:48;-1.70;99.90
2497;DHT22;1259;48.306;14.374;2023-02-08T10:04:18;-1.60;99.90
2497;DHT22;1259;48.306;14.374;2023-02-08T10:06:47;-1.30;99.90
2497;DHT22;1259;48.306;14.374;2023-02-08T10:09:14;-1.50;99.90
2497;DHT22;1259;48.306;14.374;2023-02-08T10:11:47;-1.40;99.90
2497;DHT22;1259;48.306;14.374;2023-02-08T10:14:19;-1.20;99.90
2497;DHT22;1259;48.306;14.374;2023-02-08T10:16:50;-1.00;99.90
2497;DHT22;1259;48.306;14.374;2023-02-08T10:19:24;-1.10;99.90
2497;DHT22;1259;48.306;14.374;2023-02-08T10:21:55;-1.00;99.90
2497;DHT22;1259;48.306;14.374;2023-02-08T10:24:30;-1.30;99.90
2497;DHT22;1259;48.306;14.374;2023-02-08T10:27:04;-1.00;99.90
2497;DHT22;1259;48.306;14.374;2023-02-08T10:29:39;-0.90;99.90
2497;DHT22;1259;48.306;14.374;2023-02-08T10:32:14;-0.80;99.90
2497;DHT22;1259;48.306;14.374;2023-02-08T10:34:44;-0.90;99.90
2497;DHT22;1259;48.306;14.374;2023-02-08T10:37:12;-0.70;99.90
2497;DHT22;1259;48.306;14.374;2023-02-08T10:39:39;-0.70;99.90
2497;DHT22;1259;48.306;14.374;2023-02-08T10:42:11;-0.90;99.90
2497;DHT22;1259;48.306;14.374;2023-02-08T10:44:40;-0.70;99.90
2497;DHT22;1259;48.306;14.374;2023-02-08T10:47:13;-0.60;99.90
2497;DHT22;1259;48.306;14.374;2023-02-08T10:49:44;-0.50;99.90
2497;DHT22;1259;48.306;14.374;2023-02-08T10:52:14;-0.60;99.90
2497;DHT22;1259;48.306;14.374;2023-02-08T10:54:41;-0.50;99.90
2497;DHT22;1259;48.306;14.374;2023-02-08T10:57:11;-0.40;99.90
2497;DHT22;1259;48.306;14.374;2023-02-08T10:59:44;-0.50;99.20
2497;DHT22;1259;48.306;14.374;2023-02-08T11:02:17;-0.60;98.20
2497;DHT22;1259;48.306;14.374;2023-02-08T11:04:56;-0.40;99.10
2497;DHT22;1259;48.306;14.374;2023-02-08T11:07:23;-0.50;98.30
2497;DHT22;1259;48.306;14.374;2023-02-08T11:09:50;-0.50;98.10
2497;DHT22;1259;48.306;14.374;2023-02-08T11:12:18;-0.40;97.70
2497;DHT22;1259;48.306;14.374;2023-02-08T11:14:47;-0.40;97.30
2497;DHT22;1259;48.306;14.374;2023-02-08T11:17:21;-0.40;97.50
2497;DHT22;1259;48.306;14.374;2023-02-08T11:19:49;-0.40;97.00
2497;DHT22;1259;48.306;14.374;2023-02-08T11:22:17;-0.40;97.00
2497;DHT22;1259;48.306;14.374;2023-02-08T11:24:44;-0.60;93.70
2497;DHT22;1259;48.306;14.374;2023-02-08T11:27:15;-0.30;96.90
2497;DHT22;1259;48.306;14.374;2023-02-08T11:29:44;-0.20;96.60
2497;DHT22;1259;48.306;14.374;2023-02-08T11:32:15;-0.40;95.80
2497;DHT22;1259;48.306;14.374;2023-02-08T11:34:42;-0.20;95.70
2497;DHT22;1259;48.306;14.374;2023-02-08T11:37:12;0.00;95.20
2497;DHT22;1259;48.306;14.374;2023-02-08T11:39:41;0.00;94.80
2497;DHT22;1259;48.306;14.374;2023-02-08T11:42:12;0.00;94.20
2497;DHT22;1259;48.306;14.374;2023-02-08T11:44:45;0.10;94.20
2497;DHT22;1259;48.306;14.374;2023-02-08T11:47:14;-0.10;92.00
2497;DHT22;1259;48.306;14.374;2023-02-08T11:49:41;-0.10;92.70
2497;DHT22;1259;48.306;14.374;2023-02-08T11:52:18;0.10;93.10
2497;DHT22;1259;48.306;14.374;2023-02-08T11:54:45;-0.10;90.60
2497;DHT22;1259;48.306;14.374;2023-02-08T11:57:13;-0.30;90.30
2497;DHT22;1259;48.306;14.374;2023-02-08T11:59:40;-0.10;91.00
2497;DHT22;1259;48.306;14.374;2023-02-08T12:02:29;-0.10;90.80
2497;DHT22;1259;48.306;14.374;2023-02-08T12:04:56;-0.10;90.60
2497;DHT22;1259;48.306;14.374;2023-02-08T12:07:26;0.00;91.30
2497;DHT22;1259;48.306;14.374;2023-02-08T12:10:13;0.00;91.10
2497;DHT22;1259;48.306;14.374;2023-02-08T12:12:46;-0.10;90.80
2497;DHT22;1259;48.306;14.374;2023-02-08T12:15:16;-0.30;89.00
2497;DHT22;1259;48.306;14.374;2023-02-08T12:17:53;-0.20;90.90
2497;DHT22;1259;48.306;14.374;2023-02-08T12:20:35;-0.20;91.00
2497;DHT22;1259;48.306;14.374;2023-02-08T12:23:12;-0.30;90.10
2497;DHT22;1259;48.306;14.374;2023-02-08T12:25:43;-0.10;91.00
2497;DHT22;1259;48.306;14.374;2023-02-08T12:28:13;0.00;91.20
2497;DHT22;1259;48.306;14.374;2023-02-08T12:30:42;0.10;91.50
2497;DHT22;1259;48.306;14.374;2023-02-08T12:33:22;0.10;90.40
2497;DHT22;1259;48.306;14.374;2023-02-08T12:36:00;0.00;91.30
2497;DHT22;1259;48.306;14.374;2023-02-08T12:41:34;-0.10;90.50
2497;DHT22;1259;48.306;14.374;2023-02-08T12:44:03;0.00;91.20
2497;DHT22;1259;48.306;14.374;2023-02-08T12:46:43;0.10;90.80
2497;DHT22;1259;48.306;14.374;2023-02-08T12:49:27;0.10;91.00
2497;DHT22;1259;48.306;14.374;2023-02-08T12:51:57;0.10;91.40
2497;DHT22;1259;48.306;14.374;2023-02-08T12:54:29;0.10;91.00
2497;DHT22;1259;48.306;14.374;2023-02-08T12:56:57;0.10;90.50
2497;DHT22;1259;48.306;14.374;2023-02-08T12:59:25;0.20;91.20
2497;DHT22;1259;48.306;14.374;2023-02-08T13:01:54;0.40;92.20
2497;DHT22;1259;48.306;14.374;2023-02-08T13:04:25;0.30;90.70
2497;DHT22;1259;48.306;14.374;2023-02-08T13:06:56;0.20;90.60
2497;DHT22;1259;48.306;14.374;2023-02-08T13:09:26;0.00;89.10
2497;DHT22;1259;48.306;14.374;2023-02-08T13:11:54;0.10;90.80
2497;DHT22;1259;48.306;14.374;2023-02-08T13:14:25;0.00;90.50
2497;DHT22;1259;48.306;14.374;2023-02-08T13:16:54;0.10;91.00
2497;DHT22;1259;48.306;14.374;2023-02-08T13:19:25;0.10;90.00
2497;DHT22;1259;48.306;14.374;2023-02-08T13:21:52;0.20;91.30
2497;DHT22;1259;48.306;14.374;2023-02-08T13:24:24;0.10;90.40
2497;DHT22;1259;48.306;14.374;2023-02-08T13:26:52;0.00;89.90
2497;DHT22;1259;48.306;14.374;2023-02-08T13:29:19;0.00;90.00
2497;DHT22;1259;48.306;14.374;2023-02-08T13:31:47;-0.10;88.60
2497;DHT22;1259;48.306;14.374;2023-02-08T13:34:16;0.00;89.70
2497;DHT22;1259;48.306;14.374;2023-02-08T13:36:48;-0.10;89.40
2497;DHT22;1259;48.306;14.374;2023-02-08T13:39:23;0.00;90.40
2497;DHT22;1259;48.306;14.374;2023-02-08T13:41:54;0.00;90.10
2497;DHT22;1259;48.306;14.374;2023-02-08T13:44:23;-0.10;90.10
2497;DHT22;1259;48.306;14.374;2023-02-08T13:46:52;0.00;90.20
2497;DHT22;1259;48.306;14.374;2023-02-08T13:49:40;-0.10;89.60
2497;DHT22;1259;48.306;14.374;2023-02-08T13:52:07;-0.10;90.50
2497;DHT22;1259;48.306;14.374;2023-02-08T13:54:34;-0.10;90.10
2497;DHT22;1259;48.306;14.374;2023-02-08T13:57:03;-0.10;90.60
2497;DHT22;1259;48.306;14.374;2023-02-08T13:59:35;-0.20;90.20
2497;DHT22;1259;48.306;14.374;2023-02-08T14:02:21;-0.20;90.10
2497;DHT22;1259;48.306;14.374;2023-02-08T14:04:49;-0.30;89.40
2497;DHT22;1259;48.306;14.374;2023-02-08T14:07:25;-0.30;89.60
2497;DHT22;1259;48.306;14.374;2023-02-08T14:10:05;-0.30;90.20
2497;DHT22;1259;48.306;14.374;2023-02-08T14:12:35;-0.30;89.90
2497;DHT22;1259;48.306;14.374;2023-02-08T14:15:04;-0.30;89.80
2497;DHT22;1259;48.306;14.374;2023-02-08T14:17:31;-0.40;90.10
2497;DHT22;1259;48.306;14.374;2023-02-08T14:19:58;-0.40;89.60
2497;DHT22;1259;48.306;14.374;2023-02-08T14:22:26;-0.50;89.10
2497;DHT22;1259;48.306;14.374;2023-02-08T14:24:59;-0.50;89.50
2497;DHT22;1259;48.306;14.374;2023-02-08T14:27:27;-0.60;90.00
2497;DHT22;1259;48.306;14.374;2023-02-08T14:29:58;-0.60;90.50
2497;DHT22;1259;48.306;14.374;2023-02-08T14:32:26;-0.60;90.60
2497;DHT22;1259;48.306;14.374;2023-02-08T14:34:58;-0.60;91.00
2497;DHT22;1259;48.306;14.374;2023-02-08T14:37:26;-0.60;91.10
2497;DHT22;1259;48.306;14.374;2023-02-08T14:42:54;-0.70;91.50
2497;DHT22;1259;48.306;14.374;2023-02-08T14:45:29;-0.80;90.90
2497;DHT22;1259;48.306;14.374;2023-02-08T14:47:56;-0.80;90.90
2497;DHT22;1259;48.306;14.374;2023-02-08T14:50:28;-0.80;90.70
2497;DHT22;1259;48.306;14.374;2023-02-08T14:52:56;-0.80;91.30
2497;DHT22;1259;48.306;14.374;2023-02-08T14:55:25;-0.90;91.20
2497;DHT22;1259;48.306;14.374;2023-02-08T14:57:53;-0.90;91.20
2497;DHT22;1259;48.306;14.374;2023-02-08T15:00:21;-0.90;91.30
2497;DHT22;1259;48.306;14.374;2023-02-08T15:02:49;-1.00;91.70
2497;DHT22;1259;48.306;14.374;2023-02-08T15:05:19;-1.00;90.70
2497;DHT22;1259;48.306;14.374;2023-02-08T15:07:46;-0.90;90.90
2497;DHT22;1259;48.306;14.374;2023-02-08T15:10:15;-0.90;91.30
2497;DHT22;1259;48.306;14.374;2023-02-08T15:12:43;-0.90;91.30
2497;DHT22;1259;48.306;14.374;2023-02-08T15:15:20;-1.00;91.10
2497;DHT22;1259;48.306;14.374;2023-02-08T15:17:49;-1.10;91.00
2497;DHT22;1259;48.306;14.374;2023-02-08T15:20:18;-1.10;91.10
2497;DHT22;1259;48.306;14.374;2023-02-08T15:22:45;-1.10;91.40
2497;DHT22;1259;48.306;14.374;2023-02-08T15:25:15;-1.10;90.90
2497;DHT22;1259;48.306;14.374;2023-02-08T15:27:46;-1.10;91.40
2497;DHT22;1259;48.306;14.374;2023-02-08T15:30:24;-1.20;91.50
2497;DHT22;1259;48.306;14.374;2023-02-08T15:32:52;-1.20;91.80
2497;DHT22;1259;48.306;14.374;2023-02-08T15:35:19;-1.20;92.20
2497;DHT22;1259;48.306;14.374;2023-02-08T15:37:48;-1.20;92.10
2497;DHT22;1259;48.306;14.374;2023-02-08T15:40:22;-1.20;91.80
2497;DHT22;1259;48.306;14.374;2023-02-08T15:42:48;-1.20;91.70
2497;DHT22;1259;48.306;14.374;2023-02-08T15:45:19;-1.30;92.10
2497;DHT22;1259;48.306;14.374;2023-02-08T15:47:46;-1.30;91.80
2497;DHT22;1259;48.306;14.374;2023-02-08T15:50:15;-1.30;91.90
2497;DHT22;1259;48.306;14.374;2023-02-08T15:52:43;-1.30;92.00
2497;DHT22;1259;48.306;14.374;2023-02-08T15:55:11;-1.30;92.00
2497;DHT22;1259;48.306;14.374;2023-02-08T15:57:41;-1.40;92.30
2497;DHT22;1259;48.306;14.374;2023-02-08T16:00:13;-1.40;92.30
2497;DHT22;1259;48.306;14.374;2023-02-08T16:02:41;-1.40;92.30
2497;DHT22;1259;48.306;14.374;2023-02-08T16:05:17;-1.40;92.60
2497;DHT22;1259;48.306;14.374;2023-02-08T16:07:44;-1.40;92.70